Latest Weather Observations for Coffs Harbour Airport

IDN60801

Issued at 3:22 pm EST Thursday 28 May 2020 (issued every 10 minutes, with the page automatically refreshed every 10 minutes)

About weather observations | Map of weather stations | Latest weather observations for NSW | Other Formats
Station Details ID: 059151 Name: COFFS HARBOUR AIRPORT Lat: -30.32 Lon: 153.12 Height: 3.5 m
Data from the previous 72 hours. | See also: Recent months at Coffs Harbour Airport
Date/Time
EST
Temp
°C
App
Temp
°C
Dew
Point
°C
Rel
Hum
%
Delta-T
°C
Wind Press
QNH
hPa
Press
MSL
hPa
Rain since
9am
mm
Dir  Spd
km/h
Gust
km/h
Spd
kts
Gust
kts
28/03:00pm 20.1 19.0 14.2 69 3.4 SE 13 15 7 8 1018.9 1018.9 0.0
28/02:30pm 20.6 19.5 14.3 67 3.7 SE 13 17 7 9 1018.8 1018.8 0.0
28/02:00pm 20.7 19.3 14.4 67 3.7 SE 15 19 8 10 1018.8 1018.8 0.0
28/01:30pm 20.5 18.8 13.7 65 3.9 SE 15 19 8 10 1018.9 1018.9 0.0
28/01:00pm 20.6 19.4 14.0 66 3.8 SE 13 17 7 9 1019.1 1019.1 0.0
28/12:30pm 20.6 19.0 14.0 66 3.8 SE 15 19 8 10 1019.5 1019.5 0.0
28/12:00pm 20.9 19.6 13.8 64 4.1 SSE 13 19 7 10 1019.9 1019.9 0.0
28/11:30am 20.9 19.6 13.6 63 4.2 S 13 17 7 9 1020.2 1020.2 0.0
28/11:00am 20.6 18.4 13.3 63 4.2 SSE 17 20 9 11 1020.6 1020.6 0.0
28/10:30am 20.6 19.3 13.6 64 4.0 SSE 13 17 7 9 1021.1 1021.1 0.0
28/10:00am 20.5 19.6 13.7 65 3.9 SW 11 17 6 9 1021.5 1021.5 0.0
28/09:30am 19.7 18.3 13.4 67 3.6 WSW 13 17 7 9 1021.4 1021.4 0.0
28/09:00am 18.7 17.8 13.6 72 2.9 WSW 11 13 6 7 1021.2 1021.2 0.0
28/08:30am 17.6 18.5 13.9 79 2.1 WNW 2 9 1 5 1021.2 1021.2 0.0
28/08:00am 15.8 17.3 14.7 93 0.6 CALM 0 0 0 0 1021.2 1021.2 0.0
28/07:30am 13.9 14.9 13.1 95 0.4 CALM 0 2 0 1 1021.2 1021.2 0.0
28/07:05am 12.4 12.9 11.5 94 0.5 CALM 0 0 0 0 1020.9 1020.9 0.0
28/07:00am 12.2 12.6 11.3 94 0.5 CALM 0 0 0 0 1020.9 1020.9 0.0
28/06:34am 11.7 12.0 10.8 94 0.5 CALM 0 0 0 0 1020.6 1020.6 0.0
28/06:30am 12.0 12.4 11.1 94 0.5 CALM 0 0 0 0 1020.6 1020.6 0.0
28/06:21am 11.7 12.0 10.8 94 0.5 CALM 0 0 0 0 1020.5 1020.5 0.0
28/06:02am 11.7 11.9 10.6 93 0.6 CALM 0 0 0 0 1020.1 1020.1 0.0
28/06:00am 11.6 11.8 10.5 93 0.6 CALM 0 0 0 0 1020.1 1020.1 0.0
28/05:30am 12.6 13.1 11.7 94 0.5 CALM 0 0 0 0 1019.8 1019.8 0.0
28/05:00am 12.3 12.7 11.2 93 0.6 CALM 0 0 0 0 1019.7 1019.7 0.0
28/04:30am 12.3 12.6 11.0 92 0.7 CALM 0 0 0 0 1019.7 1019.7 0.0
28/04:00am 12.8 13.2 11.4 91 0.7 CALM 0 0 0 0 1019.7 1019.7 0.0
28/03:30am 13.3 13.8 11.5 89 1.0 CALM 0 0 0 0 1019.7 1019.7 0.0
28/03:00am 14.0 13.8 11.9 87 1.1 W 4 9 2 5 1019.4 1019.4 0.0
28/02:30am 15.3 14.1 12.8 85 1.4 WSW 11 15 6 8 1019.4 1019.4 0.0
28/02:00am 15.5 14.3 12.8 84 1.5 WSW 11 17 6 9 1019.6 1019.6 0.0
28/01:30am 15.8 15.1 13.1 84 1.5 WSW 9 15 5 8 1019.7 1019.7 0.0
28/01:00am 15.8 15.1 13.1 84 1.5 WSW 9 11 5 6 1019.9 1019.9 0.0
28/12:30am 15.8 16.2 12.5 81 1.8 SSW 2 7 1 4 1019.8 1019.8 0.0
28/12:00am 16.7 15.6 13.2 80 2.0 SW 11 11 6 6 1020.2 1020.2 0.0
 
Date/Time
EST
Temp
°C
App
Temp
°C
Dew
Point
°C
Rel
Hum
%
Delta-T
°C
Wind Press
QNH
hPa
Press
MSL
hPa
Rain since
9am
mm
Dir  Spd
km/h
Gust
km/h
Spd
kts
Gust
kts
27/11:30pm 17.0 16.0 13.5 80 2.0 WSW 11 15 6 8 1020.3 1020.3 0.0
27/11:00pm 17.0 16.1 13.7 81 1.9 WSW 11 17 6 9 1020.5 1020.5 0.0
27/10:30pm 17.4 15.7 13.5 78 2.2 SW 15 19 8 10 1020.5 1020.5 0.0
27/10:00pm 17.2 15.8 13.5 79 2.1 SW 13 17 7 9 1020.4 1020.4 0.0
27/09:30pm 17.3 16.0 13.6 79 2.1 SW 13 17 7 9 1020.3 1020.3 0.0
27/09:00pm 17.4 15.7 13.5 78 2.2 SW 15 19 8 10 1020.2 1020.2 0.0
27/08:30pm 18.1 16.9 14.0 77 2.3 SW 13 17 7 9 1020.2 1020.2 0.0
27/08:00pm 18.6 18.0 14.7 78 2.3 WSW 11 15 6 8 1020.4 1020.4 0.0
27/07:30pm 19.2 16.9 14.7 75 2.6 SSW 20 32 11 17 1020.1 1020.1 0.0
27/07:00pm 19.6 16.7 15.0 75 2.7 S 24 32 13 17 1020.0 1020.0 0.0
27/06:30pm 19.5 16.6 15.2 76 2.5 S 24 32 13 17 1019.6 1019.6 0.0
27/06:00pm 19.3 16.4 15.2 77 2.4 S 24 32 13 17 1019.2 1019.2 0.0
27/05:30pm 19.6 17.2 15.3 76 2.5 SSE 22 30 12 16 1018.9 1018.9 0.0
27/05:00pm 19.8 16.6 15.2 75 2.7 S 26 33 14 18 1018.6 1018.6 0.0
27/04:30pm 20.1 17.3 15.3 74 2.8 SSE 24 33 13 18 1018.3 1018.3 0.0
27/04:00pm 20.7 18.5 15.0 70 3.3 S 20 28 11 15 1018.3 1018.3 0.0
27/03:30pm 21.5 19.0 15.1 67 3.8 S 22 30 12 16 1017.6 1017.6 0.0
27/03:00pm 21.7 19.3 15.3 67 3.8 S 22 30 12 16 1017.8 1017.8 0.0
27/02:30pm 21.7 18.8 15.1 66 3.9 S 24 30 13 16 1018.0 1018.0 0.0
27/02:00pm 21.8 19.2 14.9 65 4.1 S 22 28 12 15 1018.1 1018.1 0.0
27/01:30pm 22.3 19.7 13.9 59 4.9 S 20 26 11 14 1018.3 1018.3 0.0
27/01:00pm 21.7 18.7 13.6 60 4.7 SW 22 32 12 17 1018.7 1018.7 0.0
27/12:30pm 21.8 19.0 14.2 62 4.4 SW 22 30 12 16 1018.9 1018.9 0.0
27/12:00pm 22.2 18.4 13.5 57 5.0 SSW 26 32 14 17 1019.0 1019.0 0.0
27/11:30am 21.4 16.7 13.3 60 4.6 SW 30 37 16 20 1019.2 1019.2 0.0
27/11:00am 21.0 16.2 12.9 60 4.6 SW 30 39 16 21 1019.5 1019.5 0.0
27/10:30am 21.0 16.2 12.9 60 4.6 SW 30 39 16 21 1019.7 1019.7 0.0
27/10:00am 20.6 15.8 12.8 61 4.4 SW 30 37 16 20 1020.0 1020.0 0.0
27/09:30am 20.2 15.7 12.7 62 4.2 SW 28 37 15 20 1020.3 1020.3 0.0
27/09:00am 18.9 14.3 12.2 65 3.7 SW 28 37 15 20 1020.4 1020.4 0.0
27/08:30am 19.1 14.4 12.1 64 3.9 SW 28 35 15 19 1020.0 1020.0 0.0
27/08:00am 18.4 14.1 11.9 66 3.6 SW 26 32 14 17 1019.9 1019.9 0.0
27/07:30am 18.0 14.0 11.8 67 3.4 SW 24 32 13 17 1019.7 1019.7 0.0
27/07:00am 17.8 13.4 11.8 68 3.3 SW 26 37 14 20 1019.8 1019.8 0.0
27/06:30am 17.6 14.0 11.9 69 3.1 SW 22 35 12 19 1019.4 1019.4 0.0
27/06:00am 17.6 13.6 11.9 69 3.1 SW 24 33 13 18 1019.1 1019.1 0.0
27/05:30am 17.5 13.1 11.8 69 3.1 SW 26 35 14 19 1018.6 1018.6 0.0
27/05:00am 18.0 14.9 12.2 69 3.2 SW 20 28 11 15 1018.5 1018.5 0.0
27/04:30am 18.0 14.9 12.2 69 3.2 SW 20 30 11 16 1018.5 1018.5 0.0
27/04:00am 18.0 14.1 12.2 69 3.2 SW 24 37 13 20 1018.6 1018.6 0.0
27/03:30am 18.0 15.0 12.5 70 3.1 SW 20 30 11 16 1018.5 1018.5 0.0
27/03:00am 18.0 14.6 12.5 70 3.1 SW 22 30 12 16 1018.5 1018.5 0.0
27/02:30am 17.9 14.6 12.8 72 2.8 SW 22 33 12 18 1018.5 1018.5 0.0
27/02:00am 18.0 14.3 12.7 71 3.0 SW 24 30 13 16 1018.5 1018.5 0.0
27/01:30am 17.9 15.0 12.8 72 2.8 SW 20 32 11 17 1018.4 1018.4 0.0
27/01:00am 17.9 14.7 13.0 73 2.7 SW 22 33 12 18 1018.4 1018.4 0.0
27/12:30am 18.0 14.7 12.9 72 2.9 SW 22 30 12 16 1018.4 1018.4 0.0
27/12:00am 18.1 13.7 13.0 72 2.9 SW 28 39 15 21 1018.6 1018.6 0.0
 
Date/Time
EST
Temp
°C
App
Temp
°C
Dew
Point
°C
Rel
Hum
%
Delta-T
°C
Wind Press
QNH
hPa
Press
MSL
hPa
Rain since
9am
mm
Dir  Spd
km/h
Gust
km/h
Spd
kts
Gust
kts
26/11:30pm 18.4 13.2 12.8 70 3.1 SW 32 43 17 23 1018.8 1018.8 0.0
26/11:00pm 18.6 13.8 12.8 69 3.2 SW 30 46 16 25 1018.5 1018.5 0.0
26/10:30pm 18.4 13.0 12.8 70 3.1 SW 33 48 18 26 1018.8 1018.8 0.0
26/10:00pm 18.4 13.3 13.1 71 3.0 SW 32 50 17 27 1018.4 1018.4 0.0
26/09:39pm 18.5 12.8 13.1 71 3.0 SW 35 54 19 29 1018.4 1018.4 0.0
26/09:30pm 18.6 12.5 13.0 70 3.2 SW 37 52 20 28 1018.5 1018.5 0.0
26/09:00pm 18.9 12.8 13.1 69 3.3 SW 37 50 20 27 1018.8 1018.8 0.0
26/08:30pm 19.0 13.7 13.2 69 3.3 SW 33 50 18 27 1018.5 1018.5 0.0
26/08:00pm 19.2 13.9 13.2 68 3.4 SW 33 48 18 26 1018.3 1018.3 0.0
26/07:30pm 19.5 13.4 13.0 66 3.7 SW 37 50 20 27 1018.0 1018.0 0.0
26/07:15pm 19.6 14.3 13.1 66 3.7 SW 33 52 18 28 1018.0 1018.0 0.0
26/07:00pm 19.6 13.9 13.1 66 3.7 SW 35 50 19 27 1017.6 1017.6 0.0
26/06:52pm 19.5 14.4 13.0 66 3.7 SW 32 50 17 27 1017.5 1017.5 0.0
26/06:30pm 19.5 15.1 13.0 66 3.7 SW 28 39 15 21 1017.4 1017.4 0.0
26/06:00pm 19.3 14.5 13.0 67 3.6 SW 30 41 16 22 1016.9 1016.9 0.0
26/05:30pm 19.4 15.1 13.1 67 3.6 SW 28 37 15 20 1016.8 1016.8 0.0
26/05:00pm 19.6 15.3 13.3 67 3.6 SW 28 37 15 20 1016.4 1016.4 0.0
26/04:47pm 19.6 15.3 13.3 67 3.6 SW 28 48 15 26 1016.3 1016.3 0.0
26/04:30pm 19.8 16.3 13.5 67 3.6 SW 24 33 13 18 1016.0 1016.0 0.0
26/04:00pm 19.8 16.0 13.5 67 3.6 SW 26 39 14 21 1015.7 1015.7 0.0
26/03:30pm 20.3 15.6 13.3 64 4.0 SW 30 39 16 21 1015.4 1015.4 0.0
26/03:00pm 20.6 16.3 13.3 63 4.2 SW 28 35 15 19 1015.2 1015.2 0.0
26/02:30pm 20.4 16.4 13.1 63 4.2 SW 26 33 14 18 1015.3 1015.3 0.0
26/02:00pm 20.4 15.9 12.6 61 4.4 SW 28 39 15 21 1015.1 1015.1 0.0
26/01:30pm 21.0 16.2 12.9 60 4.6 SW 30 39 16 21 1015.2 1015.2 0.0
26/01:00pm 20.9 15.9 12.3 58 4.8 SW 30 46 16 25 1015.3 1015.3 0.0
26/12:30pm 21.2 15.7 12.3 57 5.0 SW 33 48 18 26 1015.5 1015.5 0.0
26/12:00pm 21.4 15.5 12.3 56 5.1 SW 35 54 19 29 1015.8 1015.8 0.0
26/11:30am 21.5 16.1 12.1 55 5.3 SW 32 41 17 22 1016.2 1016.2 0.0
26/11:00am 21.2 16.2 12.1 56 5.1 SW 30 43 16 23 1016.6 1016.6 0.0
26/10:30am 21.2 16.4 12.9 59 4.7 WSW 30 39 16 21 1016.5 1016.5 0.0
26/10:00am 19.9 15.5 11.7 59 4.5 SW 26 35 14 19 1016.9 1016.9 0.0
26/09:30am 19.4 15.4 11.7 61 4.2 WSW 24 35 13 19 1016.9 1016.9 0.0
26/09:00am 19.2 14.6 11.0 59 4.5 WSW 26 41 14 22 1017.0 1017.0 0.0
26/08:30am 19.3 15.1 11.1 59 4.5 WSW 24 37 13 20 1016.6 1016.6 0.0
26/08:00am 18.7 15.3 11.3 62 4.0 WSW 20 32 11 17 1016.7 1016.7 0.0
26/07:30am 17.9 13.7 11.0 64 3.7 WSW 24 33 13 18 1016.6 1016.6 0.0
26/07:00am 17.9 12.9 11.0 64 3.7 SW 28 39 15 21 1016.8 1016.8 0.0
26/06:30am 17.4 13.9 10.8 65 3.5 WSW 20 33 11 18 1016.6 1016.6 0.0
26/06:00am 17.4 14.1 10.8 65 3.5 WSW 19 30 10 16 1016.1 1016.1 0.0
26/05:30am 17.5 14.6 10.9 65 3.5 WSW 17 28 9 15 1015.8 1015.8 0.0
26/05:00am 17.7 14.7 10.8 64 3.7 SW 17 20 9 11 1015.3 1015.3 0.0
26/04:30am 17.6 14.2 10.7 64 3.7 WSW 19 26 10 14 1015.0 1015.0 0.0
26/04:00am 17.4 14.1 10.8 65 3.5 SW 19 26 10 14 1015.2 1015.2 0.0
26/03:30am 17.5 14.5 10.6 64 3.7 WSW 17 26 9 14 1015.2 1015.2 0.0
26/03:00am 17.5 14.9 10.6 64 3.7 SW 15 19 8 10 1015.1 1015.1 0.0
26/02:30am 17.2 13.8 10.6 65 3.5 WSW 19 24 10 13 1015.3 1015.3 0.0
26/02:00am 17.4 13.7 10.3 63 3.8 SW 20 30 11 16 1015.6 1015.6 0.0
26/01:30am 17.5 13.1 10.4 63 3.8 SW 24 32 13 17 1015.3 1015.3 0.0
26/01:00am 17.2 12.8 10.3 64 3.7 SW 24 30 13 16 1015.2 1015.2 0.0
26/12:30am 16.9 13.3 10.7 67 3.3 WSW 20 28 11 15 1015.3 1015.3 0.0
26/12:00am 15.8 13.2 10.6 71 2.8 WSW 15 22 8 12 1015.2 1015.2 0.0
 
Date/Time
EST
Temp
°C
App
Temp
°C
Dew
Point
°C
Rel
Hum
%
Delta-T
°C
Wind Press
QNH
hPa
Press
MSL
hPa
Rain since
9am
mm
Dir  Spd
km/h
Gust
km/h
Spd
kts
Gust
kts
25/11:30pm 14.7 12.8 10.5 76 2.2 WSW 11 13 6 7 1015.4 1015.4 0.0
25/11:00pm 14.3 13.1 11.5 83 1.5 SW 9 11 5 6 1015.4 1015.4 0.0
25/10:30pm 12.5 12.1 11.2 92 0.7 WSW 4 9 2 5 1015.6 1015.6 0.0
25/10:00pm 12.3 12.6 10.9 91 0.7 CALM 0 0 0 0 1015.6 1015.6 0.0
25/09:30pm 12.5 12.8 10.9 90 0.8 CALM 0 0 0 0 1015.6 1015.6 0.0
25/09:00pm 12.7 13.1 11.1 90 0.8 CALM 0 0 0 0 1015.5 1015.5 0.0
25/08:30pm 13.2 13.6 11.1 87 1.1 CALM 0 0 0 0 1015.5 1015.5 0.0
25/08:00pm 13.7 14.1 11.2 85 1.3 CALM 0 0 0 0 1015.3 1015.3 0.0
25/07:30pm 14.1 13.6 10.7 80 1.8 W 4 7 2 4 1015.0 1015.0 0.0
25/07:00pm 15.7 14.4 11.1 74 2.5 W 9 11 5 6 1015.1 1015.1 0.0
25/06:30pm 15.8 14.4 11.0 73 2.6 WNW 9 13 5 7 1014.9 1014.9 0.0
25/06:00pm 16.3 15.0 11.2 72 2.7 WNW 9 11 5 6 1014.5 1014.5 0.0
25/05:30pm 17.9 16.6 11.2 65 3.6 W 9 13 5 7 1014.0 1014.0 0.0
25/05:00pm 18.6 16.9 11.2 62 4.0 SW 11 17 6 9 1013.6 1013.6 0.0
25/04:30pm 20.8 18.0 11.2 54 5.3 SSW 17 24 9 13 1013.2 1013.2 0.0
25/04:00pm 22.1 20.5 11.5 51 5.9 WSW 11 19 6 10 1013.1 1013.1 0.0
25/03:30pm 22.2 19.3 11.0 49 6.2 SW 17 26 9 14 1012.8 1012.8 0.0

Other formats

Comma delimited format used in spreadsheet applications
http://www.bom.gov.au/fwo/IDN60801/IDN60801.95729.axf

JavaScript Object Notation format (JSON) in row-major order
http://www.bom.gov.au/fwo/IDN60801/IDN60801.95729.json

Data quality

Most of these data are generated automatically and are frequently updated. Quality checks on data are not normally performed. It is possible for incorrect values to appear. Refer to information at About Latest Weather Observations and please check the disclaimer before using these data.